Estación Meteorológica Peña el Pijo (Robertgarden) [ 07/23/19 13:56:14 CEST ]

Fecha Hora Presion(HPa) Temp (°C) Humedad % Rocio (°C) Viento ( m/s) Direccion Lluvia 1Hora(mm) Lluvia 24H(mm) LLuvia Total(mm)
2019-Jan-25 01:01:49 1003.400 5.4 75 1.3         167.31
2019-Jan-25 02:03:11 1003.900 6.9 76 2.9         167.31
2019-Jan-25 03:01:53 1004.000 6.4 74 2.1         167.31
2019-Jan-25 04:01:57 1003.600 4.3 76 0.4         167.31
2019-Jan-25 05:01:42 1003.600 3.3 79 0.0         167.31
2019-Jan-25 06:01:49 1003.700 3.8 81 0.9         167.31
2019-Jan-25 07:01:44 1004.500 3.8 82 1.0         167.31
2019-Jan-25 08:01:34 1004.800 4.8 82 1.9         167.31
2019-Jan-25 09:01:48 1005.400 3.8 82 1.0         167.31
2019-Jan-25 10:01:45 1005.900 8.7 81 5.6         167.31
2019-Jan-25 11:01:43 1006.300 12.2 62 5.1 1.1 WNW     167.31
2019-Jan-25 12:01:36 1006.400 13.3 55 4.4         167.31
2019-Jan-25 13:01:35 1006.100 13.3 48 2.5 0.4 N     167.31
2019-Jan-25 14:01:49 1005.800 12.5 50 2.4         167.31
2019-Jan-25 15:01:39 1005.500 15.3 47 4.1         167.31
2019-Jan-25 16:01:41 1006.200 14.1 50 3.9         167.31
2019-Jan-25 17:01:34 1005.700 13.0 51 3.1         167.31
2019-Jan-25 18:01:38 1006.100 10.6 57 2.4         167.31
2019-Jan-25 19:01:44 1006.800 8.2 62 1.3         167.31
2019-Jan-25 20:01:47 1007.500 6.1 68 0.7         167.31
2019-Jan-25 21:01:26 1008.100 4.3 72 -0.3         167.31
2019-Jan-25 22:01:26 1008.100 4.4 76 0.5         167.31
2019-Jan-25 23:01:28 1008.400 3.6 78 0.1         167.31

Temperatura Máxima:15°    Temperatura Mínima:
Presión Máxima:1008.400 Hpa    Presión Mínima:1003.400 Hpa


Volver